Time;durP1;ratioP1;P1;durP2;ratioP2;P2;SDS_P1;SDS_P2;PMS_P1;PMS_P2;Temp;Humidity;BMP_temperature;BMP_pressure;BME280_temperature;BME280_humidity;BME280_pressure;Samples;Min_cycle;Max_cycle;Signal;HPM_P1;HPM_P2
2022/01/14 00:00:00;;;;;;;76.32;22.73;;;;;;;2.07;100.00;103815.78;5088166;28;20015;-74
2022/01/14 00:02:26;;;;;;;95.38;23.08;;;;;;;2.06;100.00;103813.06;5087609;28;20020;-74
2022/01/14 00:04:51;;;;;;;83.05;21.25;;;;;;;2.05;100.00;103819.84;5085148;28;20294;-74
2022/01/14 00:07:17;;;;;;;81.03;20.20;;;;;;;2.04;100.00;103823.19;5084866;28;20016;-74
2022/01/14 00:09:42;;;;;;;73.38;20.60;;;;;;;2.04;100.00;103822.25;5078886;28;20099;-74
2022/01/14 00:12:16;;;;;;;74.18;22.00;;;;;;;2.03;100.00;103829.06;5096313;28;20024;-74
2022/01/14 00:14:45;;;;;;;78.70;21.70;;;;;;;2.01;100.00;103820.25;5078558;28;20015;-74
2022/01/14 00:17:12;;;;;;;70.32;20.67;;;;;;;2.01;100.00;103822.84;5105209;28;20102;-74
2022/01/14 00:19:39;;;;;;;76.35;20.63;;;;;;;2.01;100.00;103811.66;5092730;28;20024;-74
2022/01/14 00:22:10;;;;;;;83.82;21.33;;;;;;;2.01;100.00;103821.94;5092584;28;20027;-74
2022/01/14 00:32:59;;;;;;;56.22;18.52;;;;;;;1.97;100.00;103802.72;5092578;28;20073;-74
2022/01/14 00:35:24;;;;;;;71.85;20.60;;;;;;;1.98;100.00;103811.31;5081443;28;20016;-74
2022/01/14 00:37:50;;;;;;;64.05;19.25;;;;;;;1.98;100.00;103811.31;5093501;28;20075;-74
2022/01/14 00:40:15;;;;;;;67.90;20.45;;;;;;;1.96;100.00;103805.13;5085693;28;20047;-74
2022/01/14 00:42:41;;;;;;;70.75;19.40;;;;;;;1.92;100.00;103802.19;5086355;28;20021;-74
2022/01/14 00:45:07;;;;;;;68.53;19.67;;;;;;;1.91;100.00;103787.53;5086331;28;20055;-74
2022/01/14 00:47:34;;;;;;;54.10;17.63;;;;;;;1.90;100.00;103788.28;5094523;28;20204;-74
2022/01/14 00:50:00;;;;;;;65.32;19.45;;;;;;;1.89;100.00;103783.88;5083565;28;20035;-74
2022/01/14 00:52:25;;;;;;;62.03;18.95;;;;;;;1.88;100.00;103779.50;5089396;28;20029;-74
2022/01/14 00:54:51;;;;;;;64.85;19.55;;;;;;;1.84;100.00;103769.63;5085065;28;20024;-74
2022/01/14 00:57:28;;;;;;;53.92;17.75;;;;;;;1.83;100.00;103760.09;5088640;28;20050;-74
2022/01/14 00:59:53;;;;;;;54.08;17.48;;;;;;;1.84;100.00;103768.69;5086068;28;20071;-74
2022/01/14 01:02:18;;;;;;;62.15;19.38;;;;;;;1.85;100.00;103756.00;5083195;28;20303;-74
2022/01/14 01:04:44;;;;;;;60.83;18.25;;;;;;;1.85;100.00;103758.59;5086639;28;20178;-74
2022/01/14 01:07:10;;;;;;;73.13;19.48;;;;;;;1.85;100.00;103758.59;5079053;28;20016;-74
2022/01/14 01:09:37;;;;;;;59.08;17.13;;;;;;;1.85;100.00;103760.25;5086781;28;20231;-74
2022/01/14 01:12:12;;;;;;;58.75;18.45;;;;;;;1.82;100.00;103758.25;5083093;28;20024;-74
2022/01/14 01:14:44;;;;;;;54.72;17.67;;;;;;;1.80;100.00;103752.06;5086492;28;20258;-74
2022/01/14 01:17:11;;;;;;;67.00;18.45;;;;;;;1.79;100.00;103752.78;5078407;28;20017;-74
2022/01/14 01:19:37;;;;;;;63.17;18.10;;;;;;;1.79;100.00;103752.78;5085676;28;20044;-74
2022/01/14 01:22:02;;;;;;;62.05;18.05;;;;;;;1.81;100.00;103751.31;5089073;28;20013;-74
2022/01/14 01:24:28;;;;;;;59.10;17.45;;;;;;;1.80;100.00;103743.44;5086380;28;20099;-74
2022/01/14 01:26:54;;;;;;;54.00;17.48;;;;;;;1.79;100.00;103744.19;5086784;28;20029;-74
2022/01/14 01:31:48;;;;;;;54.80;18.10;;;;;;;1.77;100.00;103748.22;5090650;28;20043;-74
2022/01/14 01:34:21;;;;;;;53.03;16.10;;;;;;;1.76;100.00;103751.56;5087117;28;20028;-74
2022/01/14 01:36:50;;;;;;;66.25;17.55;;;;;;;1.70;100.00;103737.31;5089732;28;20198;-74
2022/01/14 01:39:21;;;;;;;61.73;17.63;;;;;;;1.69;100.00;103739.72;5086785;28;20259;-74
2022/01/14 01:41:49;;;;;;;55.75;15.68;;;;;;;1.68;100.00;103738.81;5083661;28;20020;-74
2022/01/14 01:44:16;;;;;;;59.65;16.38;;;;;;;1.67;100.00;103738.66;5083212;28;20024;-74
2022/01/14 01:46:45;;;;;;;53.53;15.68;;;;;;;1.67;100.00;103746.38;5089722;28;20188;-74
2022/01/14 01:49:11;;;;;;;59.47;16.10;;;;;;;1.63;100.00;103744.22;5086237;28;20020;-74
2022/01/14 01:51:37;;;;;;;58.08;16.35;;;;;;;1.60;100.00;103739.66;5090596;28;20012;-74
2022/01/14 01:54:03;;;;;;;66.68;16.38;;;;;;;1.60;100.00;103739.66;5087346;28;20036;-74
2022/01/14 01:56:29;;;;;;;51.85;16.05;;;;;;;1.58;100.00;103735.09;5087522;28;20020;-74
2022/01/14 01:58:56;;;;;;;60.33;15.90;;;;;;;1.58;100.00;103737.66;5082790;28;20081;-74
2022/01/14 02:01:23;;;;;;;58.72;16.25;;;;;;;1.56;100.00;103743.56;5090734;28;20012;-74
2022/01/14 02:03:50;;;;;;;54.67;15.82;;;;;;;1.54;100.00;103745.03;5087596;28;20012;-74
2022/01/14 02:06:17;;;;;;;58.92;15.70;;;;;;;1.51;100.00;103733.53;5091789;28;20021;-74
2022/01/14 02:08:42;;;;;;;47.42;15.82;;;;;;;1.49;100.00;103738.50;5087473;28;20039;-74
2022/01/14 02:11:08;;;;;;;53.08;16.00;;;;;;;1.49;100.00;103735.94;5090666;28;20020;-74
2022/01/14 02:13:33;;;;;;;55.22;16.38;;;;;;;1.50;100.00;103740.31;5085338;28;20028;-74
2022/01/14 02:23:51;;;;;;;55.08;16.13;;;;;;;1.53;100.00;103725.22;5091480;28;20023;-74
2022/01/14 02:26:18;;;;;;;69.20;16.95;;;;;;;1.52;100.00;103725.06;5093307;28;20028;-74
2022/01/14 02:28:44;;;;;;;45.92;15.38;;;;;;;1.51;100.00;103730.97;5086882;28;20025;-74
2022/01/14 02:31:09;;;;;;;50.47;14.95;;;;;;;1.48;100.00;103723.84;5090503;28;20028;-74
2022/01/14 02:33:35;;;;;;;47.88;15.50;;;;;;;1.48;100.00;103715.22;5091260;28;20316;-74
2022/01/14 02:36:02;;;;;;;58.00;15.63;;;;;;;1.47;100.00;103706.59;5088082;28;20220;-74
2022/01/14 02:38:28;;;;;;;47.92;15.27;;;;;;;1.47;100.00;103705.69;5093228;28;20081;-74
2022/01/14 02:40:53;;;;;;;67.38;16.02;;;;;;;1.47;100.00;103709.16;5087071;28;20012;-74
2022/01/14 02:43:18;;;;;;;51.83;15.60;;;;;;;1.46;100.00;103704.75;5089217;28;20144;-74
2022/01/14 02:45:49;;;;;;;51.17;15.32;;;;;;;1.47;100.00;103711.72;5085554;28;20012;-74
2022/01/14 02:48:16;;;;;;;55.58;15.52;;;;;;;1.47;100.00;103711.72;5089741;28;20314;-74
2022/01/14 02:50:53;;;;;;;59.67;15.57;;;;;;;1.48;100.00;103711.00;5086386;28;20263;-74
2022/01/14 02:53:28;;;;;;;55.13;16.27;;;;;;;1.48;100.00;103711.00;5087116;28;20029;-74
2022/01/14 02:55:59;;;;;;;45.47;15.48;;;;;;;1.47;100.00;103691.16;5082728;28;20020;-74
2022/01/14 02:58:26;;;;;;;46.10;15.63;;;;;;;1.48;100.00;103708.41;5088385;28;20065;-74
2022/01/14 03:00:53;;;;;;;54.03;15.23;;;;;;;1.46;100.00;103704.75;5087988;28;20205;-74
2022/01/14 03:03:23;;;;;;;62.28;16.27;;;;;;;1.43;100.00;103704.44;5080908;28;20021;-74
2022/01/14 03:05:50;;;;;;;60.33;15.48;;;;;;;1.41;100.00;103703.38;5088309;28;20091;-74
2022/01/14 03:08:20;;;;;;;43.50;15.27;;;;;;;1.40;100.00;103706.69;5094003;28;20270;-74
2022/01/14 03:10:53;;;;;;;47.33;15.00;;;;;;;1.41;100.00;103695.66;5085526;28;20237;-74
2022/01/14 03:13:19;;;;;;;46.35;15.00;;;;;;;1.38;100.00;103705.63;5088094;28;20251;-74
2022/01/14 03:15:45;;;;;;;50.75;14.75;;;;;;;1.36;100.00;103699.38;5087539;28;20023;-74
2022/01/14 03:18:10;;;;;;;41.80;14.88;;;;;;;1.36;100.00;103707.09;5094678;28;20024;-74
2022/01/14 03:20:46;;;;;;;50.47;14.45;;;;;;;1.34;100.00;103703.47;5089257;28;20174;-74
2022/01/14 03:23:13;;;;;;;49.83;14.07;;;;;;;1.32;99.93;103707.53;5087428;28;20021;-74
2022/01/14 03:25:48;;;;;;;42.05;13.52;;;;;;;1.32;100.00;103699.84;5089585;28;20028;-74
2022/01/14 03:28:24;;;;;;;77.97;14.98;;;;;;;1.27;100.00;103703.53;5104975;28;20089;-74
2022/01/14 03:30:52;;;;;;;46.72;14.10;;;;;;;1.23;100.00;103702.28;5103431;28;20247;-74
2022/01/14 03:33:19;;;;;;;70.97;15.02;;;;;;;1.21;100.00;103706.38;5090341;28;20025;-74
2022/01/14 03:35:45;;;;;;;54.95;15.38;;;;;;;1.19;100.00;103701.06;5088532;28;20257;-74
2022/01/14 03:38:11;;;;;;;60.72;14.27;;;;;;;1.17;100.00;103700.00;5093004;28;20078;-74
2022/01/14 03:40:36;;;;;;;56.65;14.63;;;;;;;1.17;100.00;103700.00;5087824;28;20028;-74
2022/01/14 03:43:01;;;;;;;68.82;15.13;;;;;;;1.14;100.00;103694.50;5093943;28;20018;-74
2022/01/14 03:45:27;;;;;;;52.25;14.52;;;;;;;1.14;100.00;103694.50;5089802;28;20016;-74
2022/01/14 03:47:52;;;;;;;60.65;15.15;;;;;;;1.15;100.00;103695.44;5089492;28;20020;-74
2022/01/14 03:50:17;;;;;;;63.97;14.75;;;;;;;1.16;100.00;103698.16;5088409;28;20012;-74
2022/01/14 03:52:43;;;;;;;55.83;14.50;;;;;;;1.18;100.00;103688.97;5089100;28;20042;-74
2022/01/14 03:55:08;;;;;;;55.92;15.07;;;;;;;1.19;100.00;103702.72;5079974;28;20287;-74
2022/01/14 03:57:34;;;;;;;46.35;14.60;;;;;;;1.22;100.00;103692.78;5088855;28;20179;-74
2022/01/14 03:59:59;;;;;;;58.55;15.27;;;;;;;1.24;100.00;103700.66;5085698;28;20021;-74
2022/01/14 04:02:24;;;;;;;51.40;14.18;;;;;;;1.24;100.00;103696.41;5088378;28;20028;-74
2022/01/14 04:04:49;;;;;;;45.25;14.02;;;;;;;1.24;100.00;103692.94;5084953;28;20279;-74
2022/01/14 04:07:15;;;;;;;50.13;14.50;;;;;;;1.23;100.00;103699.72;5091727;28;20047;-74
2022/01/14 04:09:41;;;;;;;55.50;14.48;;;;;;;1.23;100.00;103693.69;5083198;28;20282;-74
2022/01/14 04:12:09;;;;;;;52.55;14.90;;;;;;;1.21;100.00;103693.53;5091623;28;20016;-74
2022/01/14 04:17:01;;;;;;;58.78;14.77;;;;;;;1.22;100.00;103682.50;5092672;28;20201;-75
2022/01/14 04:19:27;;;;;;;50.92;14.10;;;;;;;1.22;100.00;103685.06;5087675;28;20020;-74
2022/01/14 04:21:53;;;;;;;45.83;14.98;;;;;;;1.23;100.00;103679.16;5091783;28;20041;-74
2022/01/14 04:24:19;;;;;;;52.65;15.05;;;;;;;1.22;100.00;103677.38;5088195;28;20227;-74
2022/01/14 04:26:44;;;;;;;49.60;14.93;;;;;;;1.21;100.00;103679.00;5086308;28;20274;-74
2022/01/14 04:29:09;;;;;;;66.43;15.30;;;;;;;1.21;100.00;103681.59;5088969;28;20066;-74
2022/01/14 04:31:34;;;;;;;53.35;14.52;;;;;;;1.21;100.00;103671.31;5088430;28;20219;-74
2022/01/14 04:34:00;;;;;;;51.55;15.23;;;;;;;1.20;100.00;103674.66;5087847;28;20020;-74
2022/01/14 04:36:25;;;;;;;45.45;14.40;;;;;;;1.17;100.00;103683.66;5091778;28;20086;-74
2022/01/14 04:38:50;;;;;;;47.80;15.23;;;;;;;1.15;100.00;103680.94;5086322;28;20031;-74
2022/01/14 04:41:16;;;;;;;75.35;15.60;;;;;;;1.14;100.00;103675.63;5090784;28;20023;-74
2022/01/14 04:43:41;;;;;;;92.97;15.90;;;;;;;1.10;100.00;103671.84;5089684;28;20057;-74
2022/01/14 04:48:34;;;;;;;52.97;15.98;;;;;;;1.08;100.00;103667.28;5089409;28;20255;-74
2022/01/14 04:51:01;;;;;;;53.50;14.48;;;;;;;1.06;100.00;103663.63;5091815;28;20024;-74
2022/01/14 04:53:27;;;;;;;60.05;14.75;;;;;;;1.04;100.00;103663.44;5091609;28;20140;-74
2022/01/14 04:55:54;;;;;;;76.78;15.98;;;;;;;1.03;100.00;103657.41;5083563;28;20037;-74
2022/01/14 04:58:20;;;;;;;74.85;15.57;;;;;;;1.05;100.00;103657.56;5089137;28;20000;-74
2022/01/14 05:00:45;;;;;;;64.22;15.65;;;;;;;1.04;100.00;103650.59;5084864;28;20163;-74
2022/01/14 05:03:10;;;;;;;44.38;14.25;;;;;;;1.02;100.00;103646.97;5090643;28;20020;-74
2022/01/14 05:05:39;;;;;;;48.67;14.43;;;;;;;1.02;100.00;103640.19;5084293;28;20055;-74
2022/01/14 05:08:10;;;;;;;47.00;14.40;;;;;;;1.03;100.00;103636.88;5090420;28;20079;-74
2022/01/14 05:10:48;;;;;;;98.88;17.25;;;;;;;1.02;100.00;103636.72;5084660;28;20050;-74
2022/01/14 05:13:14;;;;;;;52.40;14.18;;;;;;;1.00;100.00;103633.06;5091766;28;20020;-74
2022/01/14 05:15:39;;;;;;;55.67;14.52;;;;;;;0.99;100.00;103632.16;5082261;28;20066;-74
2022/01/14 05:18:05;;;;;;;66.10;15.45;;;;;;;1.00;100.00;103633.06;5091476;28;20175;-74
2022/01/14 05:20:30;;;;;;;54.83;14.50;;;;;;;0.98;100.00;103629.41;5087058;28;20020;-74
2022/01/14 05:22:55;;;;;;;46.15;13.60;;;;;;;0.97;100.00;103628.53;5086381;28;20069;-74
2022/01/14 05:25:21;;;;;;;47.08;13.88;;;;;;;0.96;100.00;103626.69;5082372;28;20020;-74
2022/01/14 05:27:46;;;;;;;59.15;13.88;;;;;;;0.93;100.00;103622.88;5087036;28;20024;-74
2022/01/14 05:30:13;;;;;;;50.13;14.18;;;;;;;0.91;100.00;103634.63;5084628;28;20262;-74
2022/01/14 05:32:46;;;;;;;57.58;15.00;;;;;;;0.86;100.00;103629.00;5088740;28;20171;-74
2022/01/14 05:35:11;;;;;;;52.83;14.05;;;;;;;0.85;100.00;103634.88;5088426;28;20016;-74
2022/01/14 05:37:36;;;;;;;58.63;14.75;;;;;;;0.83;100.00;103624.44;5086946;28;20155;-74
2022/01/14 05:40:02;;;;;;;61.45;14.70;;;;;;;0.86;100.00;103634.16;5085229;28;20027;-74
2022/01/14 05:42:33;;;;;;;47.50;13.90;;;;;;;0.85;100.00;103624.63;5084238;28;20251;-74
2022/01/14 05:44:59;;;;;;;52.47;14.15;;;;;;;0.84;100.00;103618.59;5090821;28;20031;-74
2022/01/14 05:47:24;;;;;;;46.15;13.07;;;;;;;0.83;100.00;103619.31;5088487;28;20024;-74
2022/01/14 05:49:49;;;;;;;52.22;13.95;;;;;;;0.83;100.00;103627.03;5090777;28;20035;-74
2022/01/14 05:52:14;;;;;;;41.75;13.70;;;;;;;0.82;100.00;103617.50;5087020;28;20085;-74
2022/01/14 05:54:40;;;;;;;39.80;13.18;;;;;;;0.84;100.00;103612.53;5086138;28;20024;-74
2022/01/14 05:57:05;;;;;;;44.83;13.43;;;;;;;0.81;100.00;103614.75;5091425;28;20032;-74
2022/01/14 05:59:30;;;;;;;42.15;12.90;;;;;;;0.81;100.00;103612.19;5094917;28;20016;-74
2022/01/14 06:01:56;;;;;;;34.67;13.27;;;;;;;0.81;100.00;103620.81;5086462;28;20182;-74
2022/01/14 06:04:21;;;;;;;48.95;12.70;;;;;;;0.79;100.00;103621.41;5084156;28;20259;-74
2022/01/14 06:06:46;;;;;;;38.63;13.60;;;;;;;0.79;100.00;103617.16;5088459;28;20036;-74
2022/01/14 06:09:11;;;;;;;43.50;13.75;;;;;;;0.78;100.00;103612.81;5089142;28;20066;-74
2022/01/14 06:11:37;;;;;;;39.03;13.05;;;;;;;0.79;100.00;103617.16;5091355;28;20032;-74
2022/01/14 06:14:02;;;;;;;39.60;13.38;;;;;;;0.79;100.00;103626.53;5089161;28;20020;-74
2022/01/14 06:16:27;;;;;;;42.45;13.48;;;;;;;0.77;100.00;103636.63;5092650;28;20012;-74
2022/01/14 06:18:53;;;;;;;47.28;13.63;;;;;;;0.78;99.91;103638.47;5088770;28;20083;-74
2022/01/14 06:21:18;;;;;;;38.88;14.25;;;;;;;0.77;100.00;103634.06;5093658;28;20265;-74
2022/01/14 06:23:43;;;;;;;40.78;13.90;;;;;;;0.78;100.00;103646.16;5084674;28;20038;-74
2022/01/14 06:26:09;;;;;;;39.00;13.20;;;;;;;0.76;100.00;103637.38;5093106;28;20031;-74
2022/01/14 06:28:34;;;;;;;42.05;13.90;;;;;;;0.78;100.00;103646.16;5083949;28;20020;-74
2022/01/14 06:31:00;;;;;;;53.00;13.30;;;;;;;0.80;100.00;103643.75;5095331;28;20055;-74
2022/01/14 06:33:25;;;;;;;37.50;13.95;;;;;;;0.78;99.48;103634.97;5086143;28;20195;-74
2022/01/14 06:35:50;;;;;;;37.60;13.65;;;;;;;0.78;100.00;103629.84;5089870;28;20016;-74
2022/01/14 06:38:17;;;;;;;45.03;14.30;;;;;;;0.76;100.00;103632.22;5087198;28;20156;-74
2022/01/14 06:40:43;;;;;;;46.83;14.13;;;;;;;0.76;100.00;103628.78;5089161;28;20026;-74
2022/01/14 06:43:08;;;;;;;46.38;15.57;;;;;;;0.74;100.00;103627.66;5107188;28;20024;-74
2022/01/14 06:45:33;;;;;;;45.17;13.57;;;;;;;0.75;100.00;103621.81;5102646;28;20039;-74
2022/01/14 06:47:59;;;;;;;46.80;15.27;;;;;;;0.74;100.00;103613.22;5090337;28;20028;-74
2022/01/14 06:50:25;;;;;;;40.08;14.38;;;;;;;0.74;100.00;103623.47;5089997;28;20275;-74
2022/01/14 06:52:51;;;;;;;44.28;14.50;;;;;;;0.74;99.96;103628.59;5098302;28;20016;-74
2022/01/14 06:55:17;;;;;;;47.75;14.68;;;;;;;0.72;99.95;103630.06;5093502;28;20023;-74
2022/01/14 06:57:42;;;;;;;44.95;14.07;;;;;;;0.70;100.00;103626.44;5086149;28;20017;-74
2022/01/14 07:00:11;;;;;;;49.72;15.75;;;;;;;0.71;99.81;103622.22;5088455;28;20009;-74
2022/01/14 07:02:36;;;;;;;48.53;15.20;;;;;;;0.72;100.00;103630.06;5092391;28;20021;-74
2022/01/14 07:05:03;;;;;;;41.20;14.45;;;;;;;0.73;99.56;103624.22;5090772;28;20278;-74
2022/01/14 07:07:28;;;;;;;52.72;15.45;;;;;;;0.70;99.61;103631.56;5098842;28;20015;-74
2022/01/14 07:09:56;;;;;;;48.22;16.15;;;;;;;0.66;99.94;103632.88;5103742;28;20036;-74
2022/01/14 07:12:26;;;;;;;46.58;14.70;;;;;;;0.66;100.00;103619.16;5080662;28;20013;-74
2022/01/14 07:14:53;;;;;;;44.40;14.32;;;;;;;0.66;99.94;103634.56;5087667;28;20210;-74
2022/01/14 07:17:19;;;;;;;57.30;15.70;;;;;;;0.64;99.94;103636.06;5088574;28;20013;-74
2022/01/14 07:19:46;;;;;;;46.17;16.23;;;;;;;0.62;99.92;103632.38;5091093;28;20079;-74
2022/01/14 07:22:12;;;;;;;51.25;15.18;;;;;;;0.63;100.00;103641.91;5102701;28;20282;-74
2022/01/14 07:24:37;;;;;;;58.08;15.70;;;;;;;0.64;100.00;103642.09;5099208;28;20328;-74
2022/01/14 07:27:03;;;;;;;54.03;15.38;;;;;;;0.64;100.00;103644.66;5090321;28;20051;-74
2022/01/14 07:29:28;;;;;;;48.90;15.57;;;;;;;0.63;100.00;103639.34;5089147;28;20148;-74
2022/01/14 07:31:54;;;;;;;47.72;16.90;;;;;;;0.64;99.74;103641.19;5089800;28;20019;-74
2022/01/14 07:34:19;;;;;;;45.80;15.75;;;;;;;0.65;100.00;103640.41;5086600;28;20066;-74
2022/01/14 07:36:44;;;;;;;47.38;15.32;;;;;;;0.67;100.00;103644.06;5088986;28;20023;-74
2022/01/14 07:39:09;;;;;;;48.08;16.25;;;;;;;0.66;100.00;103644.81;5085474;28;20255;-74
2022/01/14 07:41:35;;;;;;;46.20;16.13;;;;;;;0.65;100.00;103643.91;5081897;28;20040;-74
2022/01/14 07:44:02;;;;;;;54.60;17.35;;;;;;;0.65;100.00;103648.09;5076537;28;20027;-74
2022/01/14 07:46:27;;;;;;;52.10;17.77;;;;;;;0.65;100.00;103642.97;5086631;28;20046;-74
2022/01/14 07:48:52;;;;;;;71.38;18.02;;;;;;;0.64;100.00;103643.75;5084998;28;20234;-74
2022/01/14 07:51:18;;;;;;;60.90;15.98;;;;;;;0.64;100.00;103646.31;5088158;28;20070;-74
2022/01/14 07:53:43;;;;;;;59.42;16.70;;;;;;;0.62;100.00;103648.72;5092441;28;20272;-74
2022/01/14 07:56:11;;;;;;;57.92;18.05;;;;;;;0.63;100.00;103644.47;5105801;28;20036;-74
2022/01/14 07:58:37;;;;;;;76.50;18.77;;;;;;;0.60;100.00;103636.47;5088470;28;20091;-74
2022/01/14 08:01:03;;;;;;;55.28;16.80;;;;;;;0.59;99.68;103634.63;5088331;28;20035;-74
2022/01/14 08:03:29;;;;;;;54.70;17.98;;;;;;;0.60;100.00;103644.16;5076247;28;20053;-74
2022/01/14 08:05:57;;;;;;;62.97;18.63;;;;;;;0.59;100.00;103652.59;5090387;28;20025;-74
2022/01/14 08:08:22;;;;;;;61.33;18.05;;;;;;;0.59;100.00;103648.34;5084925;28;20316;-74
2022/01/14 08:10:47;;;;;;;56.70;18.10;;;;;;;0.58;99.93;103641.41;5097408;28;20063;-74
2022/01/14 08:13:13;;;;;;;61.70;17.38;;;;;;;0.60;100.00;103644.16;5085900;28;20024;-74
2022/01/14 08:15:38;;;;;;;57.83;17.83;;;;;;;0.60;100.00;103619.41;5076998;28;20052;-74
2022/01/14 08:18:06;;;;;;;66.05;18.50;;;;;;;0.62;100.00;103637.53;5084820;28;20027;-74
2022/01/14 08:20:31;;;;;;;65.88;18.33;;;;;;;0.59;100.00;103627.81;5072604;28;20078;-74
2022/01/14 08:22:58;;;;;;;57.78;19.20;;;;;;;0.62;100.00;103629.81;5080641;28;20247;-74
2022/01/14 08:25:23;;;;;;;67.80;19.52;;;;;;;0.62;100.00;103637.53;5082714;28;20024;-74
2022/01/14 08:27:49;;;;;;;79.45;20.00;;;;;;;0.63;100.00;103635.13;5085567;28;20020;-74
2022/01/14 08:30:14;;;;;;;65.93;19.50;;;;;;;0.64;100.00;103628.34;5090223;28;20048;-74
2022/01/14 08:32:39;;;;;;;71.80;19.13;;;;;;;0.64;100.00;103626.69;5100335;28;20182;-74
2022/01/14 08:35:05;;;;;;;56.80;19.15;;;;;;;0.63;100.00;103634.22;5105121;28;20219;-74
2022/01/14 08:37:30;;;;;;;64.28;19.80;;;;;;;0.63;100.00;103645.38;5104970;28;20020;-74
2022/01/14 08:39:56;;;;;;;70.40;20.02;;;;;;;0.64;100.00;103633.47;5095619;28;20035;-74
2022/01/14 08:42:22;;;;;;;74.22;20.05;;;;;;;0.64;100.00;103651.44;5091448;28;20032;-74
2022/01/14 08:44:47;;;;;;;68.65;20.88;;;;;;;0.65;100.00;103642.97;5102392;28;20011;-74
2022/01/14 08:47:12;;;;;;;65.18;19.60;;;;;;;0.65;100.00;103658.38;5074904;28;20031;-74
2022/01/14 08:49:40;;;;;;;59.95;19.60;;;;;;;0.65;100.00;103658.38;5077055;28;20247;-74
2022/01/14 08:52:06;;;;;;;69.00;20.65;;;;;;;0.68;100.00;103651.94;5090394;28;20020;-74
2022/01/14 08:54:32;;;;;;;77.10;19.88;;;;;;;0.67;100.00;103644.06;5087729;28;20212;-74
2022/01/14 08:56:57;;;;;;;78.68;20.60;;;;;;;0.65;100.00;103642.97;5073980;28;20023;-74
2022/01/14 08:59:23;;;;;;;71.55;20.27;;;;;;;0.67;100.00;103631.25;5073274;28;20031;-74
2022/01/14 09:01:48;;;;;;;98.20;21.77;;;;;;;0.69;100.00;103634.88;5070684;28;20024;-74
2022/01/14 09:04:14;;;;;;;71.95;20.38;;;;;;;0.68;100.00;103635.63;5092186;28;20009;-74
2022/01/14 09:06:39;;;;;;;74.78;21.17;;;;;;;0.71;100.00;103640.16;5074469;28;20031;-74
2022/01/14 09:09:06;;;;;;;66.30;20.75;;;;;;;0.72;100.00;103645.47;5099918;28;20039;-74
2022/01/14 09:11:32;;;;;;;58.47;22.27;;;;;;;0.73;100.00;103652.44;5094689;28;20258;-74
2022/01/14 09:13:58;;;;;;;65.60;20.65;;;;;;;0.76;100.00;103647.63;5101167;28;20023;-74
2022/01/14 09:16:23;;;;;;;80.00;21.10;;;;;;;0.78;100.00;103630.75;5099088;28;20170;-74
2022/01/14 09:18:49;;;;;;;73.78;21.83;;;;;;;0.81;100.00;103628.53;5104245;28;20008;-74
2022/01/14 09:21:16;;;;;;;71.97;21.58;;;;;;;0.83;100.00;103629.59;5085388;28;20082;-74
2022/01/14 09:23:43;;;;;;;78.20;21.88;;;;;;;0.86;100.00;103626.44;5099347;28;20022;-74
2022/01/14 09:26:09;;;;;;;67.00;22.88;;;;;;;0.89;100.00;103654.13;5090110;28;20099;-74
2022/01/14 09:28:34;;;;;;;71.45;22.85;;;;;;;0.92;100.00;103647.63;5092839;28;20259;-74
2022/01/14 09:31:00;;;;;;;76.00;23.75;;;;;;;0.97;100.00;103643.94;5104251;28;20012;-74
2022/01/14 09:33:25;;;;;;;80.18;23.23;;;;;;;1.01;100.00;103640.00;5104121;28;20087;-74
2022/01/14 09:35:51;;;;;;;71.35;21.30;;;;;;;1.02;100.00;103634.16;5092822;28;20340;-74
2022/01/14 09:38:17;;;;;;;72.85;23.60;;;;;;;1.04;100.00;103643.84;5078270;28;20107;-74
2022/01/14 09:40:44;;;;;;;80.18;22.58;;;;;;;1.08;100.00;103647.63;5087815;28;20079;-74
2022/01/14 09:43:13;;;;;;;96.72;24.90;;;;;;;1.11;100.00;103650.53;5080163;28;20259;-74
2022/01/14 09:45:39;;;;;;;;;;;;;;;1.18;100.00;103653.00;5081606;28;20087;-74
2022/01/14 09:48:05;;;;;;;69.18;23.50;;;;;;;1.15;100.00;103657.81;5079303;28;19892;-74
2022/01/14 09:50:30;;;;;;;62.63;22.67;;;;;;;1.16;100.00;103662.22;5082189;28;20032;-75
2022/01/14 09:52:55;;;;;;;66.53;23.92;;;;;;;1.19;100.00;103667.69;5089025;28;20032;-74
2022/01/14 09:55:24;;;;;;;67.07;24.60;;;;;;;1.23;100.00;103668.00;5079180;28;20035;-74
2022/01/14 09:57:52;;;;;;;75.40;24.95;;;;;;;1.26;100.00;103676.03;5080895;28;20095;-74
2022/01/14 10:00:17;;;;;;;72.20;24.88;;;;;;;1.25;100.00;103676.81;5079039;28;20517;-74
2022/01/14 10:02:43;;;;;;;67.57;23.20;;;;;;;1.29;100.00;103666.06;5072716;28;20036;-76
2022/01/14 10:05:29;;;;;;;76.65;24.65;;;;;;;1.29;100.00;103668.66;5077307;28;20016;-74
2022/01/14 10:08:17;;;;;;;64.72;22.75;;;;;;;1.33;100.00;103671.72;5079767;28;20024;-74
2022/01/14 10:10:46;;;;;;;65.07;22.38;;;;;;;1.38;100.00;103674.78;5089473;28;20028;-75
2022/01/14 10:13:21;;;;;;;64.38;24.08;;;;;;;1.41;100.00;103680.25;5085118;28;20058;-75
2022/01/14 10:15:50;;;;;;;69.72;24.15;;;;;;;1.44;100.00;103674.53;5075350;28;20255;-75
2022/01/14 10:18:17;;;;;;;76.53;25.15;;;;;;;1.44;100.00;103680.56;5098976;28;20019;-75
2022/01/14 10:20:43;;;;;;;70.20;24.35;;;;;;;1.46;100.00;103683.31;5069136;28;20024;-76
2022/01/14 10:23:09;;;;;;;76.05;24.25;;;;;;;1.45;100.00;103671.19;5081266;28;20013;-75
2022/01/14 10:25:34;;;;;;;75.88;25.65;;;;;;;1.46;100.00;103675.59;5087925;28;20031;-75
2022/01/14 10:28:00;;;;;;;96.95;43.15;;;;;;;1.45;100.00;103672.13;5088148;28;20297;-75
2022/01/14 10:30:33;;;;;;;92.97;35.08;;;;;;;1.46;100.00;103668.78;5091784;28;20170;-75
2022/01/14 10:33:03;;;;;;;74.22;29.52;;;;;;;1.48;100.00;103677.59;5077242;28;20021;-75
2022/01/14 10:35:31;;;;;;;80.22;29.13;;;;;;;1.50;100.00;103668.38;5093018;28;20252;-75
2022/01/14 10:38:03;;;;;;;60.35;22.98;;;;;;;1.50;100.00;103663.22;5084657;28;20255;-75
2022/01/14 10:40:30;;;;;;;66.60;22.95;;;;;;;1.53;100.00;103670.34;5092243;28;20024;-75
2022/01/14 10:43:02;;;;;;;66.20;24.42;;;;;;;1.54;100.00;103662.81;5095258;28;20017;-75
2022/01/14 10:45:28;;;;;;;68.32;25.48;;;;;;;1.58;100.00;103658.00;5105938;28;20073;-75
2022/01/14 10:48:20;;;;;;;71.07;25.02;;;;;;;1.60;100.00;103665.13;5089921;28;20261;-75
2022/01/14 10:50:55;;;;;;;65.90;25.30;;;;;;;1.64;100.00;103663.81;5083305;28;20075;-75
2022/01/14 10:53:26;;;;;;;70.50;25.98;;;;;;;1.66;100.00;103663.19;5078461;28;20455;-75
2022/01/14 10:55:57;;;;;;;68.72;25.05;;;;;;;1.71;100.00;103653.41;5092416;28;20055;-75
2022/01/14 10:58:35;;;;;;;78.47;29.02;;;;;;;1.72;100.00;103653.56;5077068;28;20285;-75
2022/01/14 11:01:06;;;;;;;76.50;28.33;;;;;;;1.75;100.00;103655.53;5087500;28;20049;-75
2022/01/14 11:03:40;;;;;;;79.80;28.60;;;;;;;1.78;100.00;103653.28;5103010;28;20015;-75
2022/01/14 11:06:26;;;;;;;78.00;27.92;;;;;;;1.81;100.00;103645.91;5095774;28;20156;-75
2022/01/14 11:09:24;;;;;;;225.23;55.70;;;;;;;1.83;100.00;103644.41;5090884;28;20040;-75
2022/01/14 11:11:51;;;;;;;167.25;44.00;;;;;;;1.85;100.00;103640.31;5090165;28;20103;-74
2022/01/14 11:14:17;;;;;;;88.60;30.40;;;;;;;1.88;100.00;103632.94;5106601;28;20016;-75
2022/01/14 11:16:43;;;;;;;126.30;37.88;;;;;;;1.92;100.00;103640.19;5106690;28;20289;-75
2022/01/14 11:19:09;;;;;;;161.40;47.40;;;;;;;1.96;100.00;103632.84;5106434;28;20023;-75
2022/01/14 11:24:24;;;;;;;111.18;37.95;;;;;;;2.01;100.00;103634.22;5074920;28;20032;-74
2022/01/14 11:26:52;;;;;;;82.97;29.30;;;;;;;2.02;100.00;103633.47;5083225;28;20024;-75
2022/01/14 11:29:21;;;;;;;85.78;31.95;;;;;;;2.04;100.00;103639.66;5079830;28;20251;-74
2022/01/14 11:31:57;;;;;;;69.07;28.33;;;;;;;2.06;100.00;103633.03;5090864;28;20046;-75
2022/01/14 11:34:37;;;;;;;197.98;73.90;;;;;;;2.09;100.00;103635.91;5090501;28;20300;-74